Time;durP1;ratioP1;P1;durP2;ratioP2;P2;SDS_P1;SDS_P2;PMS_P1;PMS_P2;Temp;Humidity;BMP_temperature;BMP_pressure;BME280_temperature;BME280_humidity;BME280_pressure;Samples;Min_cycle;Max_cycle;Signal;HPM_P1;HPM_P2
2023/07/07 00:01:39;;;;;;;0.90;0.40;;;14.30;99.90;;;;;;5016353;28;20438;-59
2023/07/07 00:04:09;;;;;;;0.82;0.60;;;14.30;99.90;;;;;;5015374;28;20439;-58
2023/07/07 00:06:35;;;;;;;0.40;0.40;;;14.40;99.90;;;;;;5015852;28;20552;-59
2023/07/07 00:09:26;;;;;;;1.13;0.70;;;14.40;99.90;;;;;;5017939;28;20446;-59
2023/07/07 00:11:54;;;;;;;0.60;0.60;;;14.50;99.90;;;;;;5016883;28;20437;-59
2023/07/07 00:14:45;;;;;;;0.70;0.70;;;14.60;99.90;;;;;;5019034;28;20497;-59
2023/07/07 00:17:12;;;;;;;3.92;0.43;;;14.60;99.90;;;;;;5016041;28;20434;-59
2023/07/07 00:19:41;;;;;;;0.50;0.50;;;14.60;99.90;;;;;;4955114;28;1801044;-59
2023/07/07 00:22:12;;;;;;;3.30;0.50;;;14.50;99.90;;;;;;5002643;28;20431;-59
2023/07/07 00:24:39;;;;;;;0.40;0.40;;;14.50;99.90;;;;;;5016691;28;20514;-59
2023/07/07 00:27:06;;;;;;;0.50;0.50;;;14.60;99.90;;;;;;5017800;28;20505;-59
2023/07/07 00:29:35;;;;;;;1.10;0.40;;;14.60;99.90;;;;;;5017942;28;20532;-59
2023/07/07 00:32:05;;;;;;;1.02;0.70;;;14.50;99.90;;;;;;5018022;28;20457;-59
2023/07/07 00:34:32;;;;;;;0.98;0.50;;;14.50;99.90;;;;;;5019398;28;20531;-59
2023/07/07 00:36:59;;;;;;;1.33;0.55;;;14.40;99.90;;;;;;5016443;28;22079;-59
2023/07/07 00:39:26;;;;;;;0.33;0.33;;;14.20;99.90;;;;;;5000217;28;20434;-59
2023/07/07 00:41:52;;;;;;;1.80;0.52;;;14.10;99.90;;;;;;5017780;28;20434;-59
2023/07/07 00:44:19;;;;;;;0.38;0.38;;;14.10;99.90;;;;;;5015081;28;20560;-59
2023/07/07 00:46:49;;;;;;;0.50;0.50;;;14.10;99.90;;;;;;5016276;28;20462;-59
2023/07/07 00:49:23;;;;;;;3.70;0.60;;;14.00;99.90;;;;;;5008661;28;20446;-58
2023/07/07 00:51:59;;;;;;;2.60;0.50;;;14.00;99.90;;;;;;5013836;28;20504;-58
2023/07/07 00:54:32;;;;;;;0.70;0.52;;;14.00;99.90;;;;;;5017223;28;20473;-58
2023/07/07 00:57:01;;;;;;;2.90;0.80;;;14.00;99.90;;;;;;5007940;28;20450;-58
2023/07/07 00:59:35;;;;;;;3.13;0.63;;;14.00;99.90;;;;;;5017224;28;20439;-59
2023/07/07 01:02:10;;;;;;;2.30;0.60;;;14.00;99.90;;;;;;5013955;28;20427;-58
2023/07/07 01:04:40;;;;;;;3.80;0.80;;;13.90;99.90;;;;;;5017960;28;20484;-59
2023/07/07 01:07:18;;;;;;;1.10;0.60;;;13.90;99.90;;;;;;5014941;28;20510;-59
2023/07/07 01:09:45;;;;;;;0.40;0.40;;;13.80;99.90;;;;;;5015634;28;20446;-58
2023/07/07 01:12:13;;;;;;;1.20;0.47;;;13.80;99.90;;;;;;5014698;28;20438;-58
2023/07/07 01:14:40;;;;;;;0.40;0.40;;;13.70;99.90;;;;;;5008889;28;22193;-59
2023/07/07 01:17:15;;;;;;;0.45;0.45;;;13.70;99.90;;;;;;5016792;28;20920;-59
2023/07/07 01:20:09;;;;;;;0.68;0.68;;;13.70;99.90;;;;;;5016716;28;20530;-59
2023/07/07 01:23:20;;;;;;;0.80;0.80;;;13.70;99.90;;;;;;5017599;28;20438;-59
2023/07/07 01:26:22;;;;;;;0.55;0.55;;;13.70;99.90;;;;;;4942668;28;20438;-58
2023/07/07 01:29:15;;;;;;;1.30;0.70;;;13.70;99.90;;;;;;5018894;28;20439;-59
2023/07/07 01:31:52;;;;;;;0.40;0.40;;;13.70;99.90;;;;;;4963946;28;20513;-59
2023/07/07 01:34:19;;;;;;;1.15;0.47;;;13.70;99.90;;;;;;5016946;28;20453;-58
2023/07/07 01:36:46;;;;;;;0.50;0.50;;;13.70;99.90;;;;;;5014383;28;20940;-58
2023/07/07 01:39:13;;;;;;;0.30;0.30;;;13.70;99.90;;;;;;5016251;28;20425;-59
2023/07/07 01:42:01;;;;;;;0.45;0.45;;;13.70;99.90;;;;;;5015406;28;20435;-59
2023/07/07 01:44:52;;;;;;;1.00;0.75;;;13.60;99.90;;;;;;5009884;28;20493;-58
2023/07/07 01:47:34;;;;;;;0.63;0.40;;;13.60;99.90;;;;;;5010373;28;20488;-59
2023/07/07 01:50:03;;;;;;;0.50;0.50;;;13.70;99.90;;;;;;5019470;28;20446;-58
2023/07/07 01:53:01;;;;;;;0.67;0.43;;;13.70;99.90;;;;;;5012650;28;20522;-58
2023/07/07 01:55:39;;;;;;;0.40;0.40;;;13.70;99.90;;;;;;5017920;28;20427;-58
2023/07/07 01:58:08;;;;;;;0.70;0.60;;;13.70;99.90;;;;;;5013624;28;20462;-59
2023/07/07 02:00:38;;;;;;;0.38;0.38;;;13.70;99.90;;;;;;5012887;28;20769;-58
2023/07/07 02:03:10;;;;;;;0.60;0.60;;;13.70;99.90;;;;;;5014913;28;20530;-59
2023/07/07 02:05:38;;;;;;;0.45;0.45;;;13.70;99.90;;;;;;5015295;28;20544;-59
2023/07/07 02:08:05;;;;;;;0.32;0.32;;;13.70;99.90;;;;;;5015783;28;20442;-59
2023/07/07 02:10:32;;;;;;;0.60;0.60;;;13.60;99.90;;;;;;5002507;28;20518;-59
2023/07/07 02:12:58;;;;;;;0.70;0.43;;;13.60;99.90;;;;;;5015864;28;20916;-59
2023/07/07 02:15:25;;;;;;;0.60;0.60;;;13.50;99.90;;;;;;5012920;28;20463;-59
2023/07/07 02:17:52;;;;;;;0.30;0.30;;;13.50;99.90;;;;;;5014965;28;20574;-59
2023/07/07 02:20:19;;;;;;;0.40;0.40;;;13.50;99.90;;;;;;5017127;28;20426;-59
2023/07/07 02:22:46;;;;;;;0.55;0.55;;;13.40;99.90;;;;;;5015754;28;20438;-59
2023/07/07 02:25:13;;;;;;;0.30;0.30;;;13.40;99.90;;;;;;4997972;28;20518;-58
2023/07/07 02:27:40;;;;;;;0.60;0.60;;;13.40;99.90;;;;;;5015093;28;20429;-58
2023/07/07 02:30:07;;;;;;;0.73;0.60;;;13.30;99.90;;;;;;5015449;28;22990;-57
2023/07/07 02:32:34;;;;;;;0.30;0.30;;;13.30;99.90;;;;;;5014732;28;20437;-59
2023/07/07 02:35:06;;;;;;;0.50;0.50;;;13.30;99.90;;;;;;5014852;28;20433;-58
2023/07/07 02:37:34;;;;;;;4.57;0.60;;;13.30;99.90;;;;;;5015912;28;20847;-58
2023/07/07 02:40:00;;;;;;;0.50;0.50;;;13.30;99.90;;;;;;5016381;28;20467;-58
2023/07/07 02:42:27;;;;;;;0.73;0.47;;;13.20;99.90;;;;;;5012086;28;20535;-58
2023/07/07 02:44:54;;;;;;;0.35;0.35;;;13.20;99.90;;;;;;5010253;28;20434;-58
2023/07/07 02:47:24;;;;;;;0.60;0.60;;;13.20;99.90;;;;;;5011135;28;20431;-58
2023/07/07 02:49:51;;;;;;;1.95;0.43;;;13.20;99.90;;;;;;5008785;28;20435;-58
2023/07/07 02:52:18;;;;;;;1.90;0.60;;;13.20;99.90;;;;;;5016560;28;20520;-58
2023/07/07 02:54:45;;;;;;;0.30;0.30;;;13.20;99.90;;;;;;5013436;28;20972;-58
2023/07/07 02:57:12;;;;;;;0.47;0.47;;;13.10;99.90;;;;;;5014919;28;20519;-58
2023/07/07 02:59:38;;;;;;;0.40;0.40;;;13.10;99.90;;;;;;5016824;28;21665;-58
2023/07/07 03:02:09;;;;;;;0.20;0.20;;;13.00;99.90;;;;;;5003851;28;20439;-58
2023/07/07 03:04:35;;;;;;;0.40;0.40;;;12.90;99.90;;;;;;5014816;28;21022;-58
2023/07/07 03:07:02;;;;;;;0.70;0.50;;;12.90;99.90;;;;;;5013467;28;20844;-58
2023/07/07 03:09:29;;;;;;;0.40;0.40;;;12.80;99.90;;;;;;5013877;28;20439;-58
2023/07/07 03:11:59;;;;;;;0.50;0.50;;;12.80;99.90;;;;;;5015118;28;20439;-59
2023/07/07 03:14:26;;;;;;;0.30;0.30;;;12.80;99.90;;;;;;5017212;28;20909;-58
2023/07/07 03:16:57;;;;;;;1.05;0.43;;;12.70;1.00;;;;;;5011899;28;20434;-58
2023/07/07 03:19:25;;;;;;;0.80;0.40;;;12.70;1.00;;;;;;5014410;28;20442;-59
2023/07/07 03:21:55;;;;;;;0.47;0.47;;;12.70;99.90;;;;;;5017762;28;20454;-58
2023/07/07 03:24:22;;;;;;;4.03;0.80;;;12.80;99.90;;;;;;5017557;28;20525;-58
2023/07/07 03:26:49;;;;;;;0.57;0.40;;;12.70;1.00;;;;;;5014831;28;20470;-58
2023/07/07 03:29:16;;;;;;;0.65;0.65;;;12.70;1.00;;;;;;5015354;28;20493;-58
2023/07/07 03:31:46;;;;;;;0.60;0.60;;;12.60;1.00;;;;;;5015000;28;20884;-58
2023/07/07 03:34:21;;;;;;;1.55;0.70;;;12.60;1.00;;;;;;5015003;28;20434;-58
2023/07/07 03:36:48;;;;;;;1.70;0.40;;;12.60;1.00;;;;;;5015333;28;20426;-59
2023/07/07 03:39:15;;;;;;;0.30;0.30;;;12.60;1.00;;;;;;5013591;28;20430;-58
2023/07/07 03:41:42;;;;;;;0.35;0.22;;;12.60;1.00;;;;;;5009784;28;20944;-58
2023/07/07 03:44:09;;;;;;;0.50;0.50;;;12.50;1.00;;;;;;5015810;28;20439;-58
2023/07/07 03:46:35;;;;;;;0.47;0.47;;;12.50;1.00;;;;;;5013511;28;20985;-58
2023/07/07 03:49:02;;;;;;;0.40;0.40;;;12.40;1.00;;;;;;5017581;28;20461;-58
2023/07/07 03:51:34;;;;;;;0.30;0.30;;;12.50;1.00;;;;;;5020602;28;20438;-58
2023/07/07 03:54:02;;;;;;;0.50;0.50;;;12.50;1.00;;;;;;5016271;28;20435;-58
2023/07/07 03:56:29;;;;;;;0.30;0.30;;;12.50;1.00;;;;;;5016824;28;20452;-58
2023/07/07 03:58:56;;;;;;;0.43;0.43;;;12.60;1.00;;;;;;5012590;28;20518;-58
2023/07/07 04:01:25;;;;;;;0.43;0.43;;;12.70;1.00;;;;;;5013273;28;20829;-58
2023/07/07 04:03:52;;;;;;;0.30;0.30;;;12.70;99.90;;;;;;5012215;28;20443;-58
2023/07/07 04:06:19;;;;;;;0.80;0.50;;;12.80;99.90;;;;;;5012569;28;20427;-58
2023/07/07 04:08:46;;;;;;;0.23;0.23;;;12.90;99.90;;;;;;4996168;28;20447;-58
2023/07/07 04:11:19;;;;;;;0.50;0.50;;;12.90;99.90;;;;;;5015757;28;20557;-58
2023/07/07 04:13:48;;;;;;;0.43;0.43;;;13.00;99.90;;;;;;5016716;28;20930;-58
2023/07/07 04:16:18;;;;;;;1.10;0.35;;;13.10;99.90;;;;;;5017351;28;20431;-59
2023/07/07 04:18:46;;;;;;;0.43;0.43;;;13.20;99.90;;;;;;5013741;28;20435;-58
2023/07/07 04:21:16;;;;;;;0.50;0.50;;;13.30;99.90;;;;;;5018868;28;20437;-58
2023/07/07 04:23:46;;;;;;;0.30;0.30;;;13.30;99.90;;;;;;5018160;28;20516;-58
2023/07/07 04:26:13;;;;;;;0.55;0.55;;;13.40;99.90;;;;;;5016145;28;20439;-58
2023/07/07 04:28:41;;;;;;;0.27;0.27;;;13.50;99.90;;;;;;5017916;28;20436;-58
2023/07/07 04:31:10;;;;;;;0.30;0.30;;;13.60;99.90;;;;;;4994885;28;20451;-59
2023/07/07 04:33:38;;;;;;;0.30;0.30;;;13.60;99.90;;;;;;5017168;28;21033;-59
2023/07/07 04:36:07;;;;;;;0.90;0.30;;;13.80;99.90;;;;;;5016161;28;20622;-59
2023/07/07 04:38:35;;;;;;;0.52;0.52;;;13.80;99.90;;;;;;5017914;28;20423;-59
2023/07/07 04:41:20;;;;;;;0.40;0.40;;;13.90;99.90;;;;;;5017183;28;20552;-59
2023/07/07 04:43:50;;;;;;;0.40;0.40;;;14.00;99.90;;;;;;5020057;28;20516;-59
2023/07/07 04:46:23;;;;;;;1.10;0.80;;;14.10;99.90;;;;;;5017353;28;20443;-59
2023/07/07 04:48:50;;;;;;;3.20;0.63;;;14.60;99.90;;;;;;5003482;28;20443;-59
2023/07/07 04:51:17;;;;;;;0.35;0.35;;;15.40;99.90;;;;;;5016190;28;20909;-59
2023/07/07 04:53:45;;;;;;;0.30;0.30;;;16.30;99.90;;;;;;5003378;28;21655;-60
2023/07/07 04:56:15;;;;;;;0.40;0.40;;;17.10;99.90;;;;;;5013890;28;20435;-59
2023/07/07 04:58:43;;;;;;;0.47;0.40;;;17.80;99.90;;;;;;5021177;28;20485;-59
2023/07/07 05:01:15;;;;;;;0.40;0.40;;;18.40;99.90;;;;;;4996842;28;20471;-59
2023/07/07 05:03:43;;;;;;;0.57;0.57;;;18.90;99.90;;;;;;5015156;28;20521;-59
2023/07/07 05:06:11;;;;;;;0.80;0.68;;;19.30;99.60;;;;;;5018058;28;20486;-60
2023/07/07 05:08:42;;;;;;;0.50;0.50;;;19.60;98.30;;;;;;5016593;28;20916;-59
2023/07/07 05:11:14;;;;;;;0.50;0.38;;;19.90;98.90;;;;;;5000560;28;20447;-59
2023/07/07 05:13:40;;;;;;;0.40;0.30;;;20.40;97.50;;;;;;5011561;28;20513;-59
2023/07/07 05:16:10;;;;;;;0.50;0.50;;;20.70;96.90;;;;;;5013990;28;20436;-59
2023/07/07 05:18:38;;;;;;;0.52;0.52;;;21.10;96.50;;;;;;5016243;28;20514;-59
2023/07/07 05:21:07;;;;;;;0.40;0.40;;;21.20;96.00;;;;;;5015571;28;20505;-59
2023/07/07 05:23:35;;;;;;;1.70;0.60;;;21.10;94.80;;;;;;5011057;28;20696;-59
2023/07/07 05:26:03;;;;;;;0.30;0.30;;;21.20;94.10;;;;;;5007328;28;20516;-59
2023/07/07 05:28:30;;;;;;;0.50;0.50;;;21.30;93.60;;;;;;4998245;28;20598;-60
2023/07/07 05:30:57;;;;;;;0.60;0.50;;;21.50;93.50;;;;;;5016196;28;20445;-59
2023/07/07 05:33:25;;;;;;;0.50;0.50;;;21.60;93.00;;;;;;5013838;28;20433;-59
2023/07/07 05:35:55;;;;;;;0.40;0.40;;;21.90;92.60;;;;;;5012644;28;21465;-60
2023/07/07 05:38:24;;;;;;;0.60;0.55;;;22.10;92.30;;;;;;4998591;28;20470;-60
2023/07/07 05:40:52;;;;;;;0.60;0.47;;;22.30;92.20;;;;;;5017109;28;20927;-59
2023/07/07 05:43:21;;;;;;;0.50;0.40;;;22.20;91.90;;;;;;5010206;28;20474;-59
2023/07/07 05:46:01;;;;;;;0.30;0.30;;;22.40;91.30;;;;;;5015386;28;20430;-60
2023/07/07 05:48:28;;;;;;;0.70;0.50;;;22.40;91.10;;;;;;5007418;28;20430;-60
2023/07/07 05:50:58;;;;;;;0.30;0.30;;;22.50;91.10;;;;;;5013504;28;20844;-59
2023/07/07 05:53:26;;;;;;;0.50;0.50;;;22.60;91.10;;;;;;5000570;28;20434;-59
2023/07/07 05:56:03;;;;;;;0.65;0.60;;;22.90;91.40;;;;;;5012379;28;20441;-60
2023/07/07 05:58:31;;;;;;;0.65;0.47;;;23.10;91.40;;;;;;5012547;28;20892;-59
2023/07/07 06:00:58;;;;;;;0.40;0.40;;;23.10;91.00;;;;;;5004509;28;20528;-59
2023/07/07 06:03:25;;;;;;;0.70;0.70;;;23.20;91.30;;;;;;5008225;28;20466;-60
2023/07/07 06:05:52;;;;;;;0.60;0.40;;;23.40;91.60;;;;;;5013668;28;20436;-60
2023/07/07 06:08:22;;;;;;;0.40;0.40;;;23.40;91.00;;;;;;5013465;28;20560;-61
2023/07/07 06:10:49;;;;;;;2.90;0.60;;;23.30;90.60;;;;;;5014679;28;20908;-60
2023/07/07 06:13:17;;;;;;;0.45;0.45;;;23.10;90.40;;;;;;5015486;28;20430;-60
2023/07/07 06:15:45;;;;;;;0.60;0.57;;;23.20;89.70;;;;;;5012528;28;20442;-60
2023/07/07 06:18:12;;;;;;;0.60;0.60;;;23.30;90.00;;;;;;5016061;28;20442;-60
2023/07/07 06:20:39;;;;;;;0.50;0.50;;;23.50;90.20;;;;;;5003344;28;20430;-60
2023/07/07 06:23:08;;;;;;;0.38;0.38;;;23.50;90.10;;;;;;5014653;28;20439;-60
2023/07/07 06:25:41;;;;;;;0.60;0.60;;;23.90;91.90;;;;;;5012758;28;21033;-60
2023/07/07 06:28:08;;;;;;;0.40;0.40;;;24.20;91.90;;;;;;5017572;28;20806;-60
2023/07/07 06:30:37;;;;;;;0.50;0.50;;;24.70;92.80;;;;;;5016493;28;20442;-60
2023/07/07 06:33:03;;;;;;;0.40;0.40;;;25.00;93.70;;;;;;5020699;28;20951;-60
2023/07/07 06:35:30;;;;;;;0.35;0.35;;;24.90;93.00;;;;;;5020440;28;20430;-60
2023/07/07 06:37:57;;;;;;;0.63;0.40;;;25.10;92.90;;;;;;5021957;28;20453;-60
2023/07/07 06:40:26;;;;;;;0.60;0.60;;;25.40;93.70;;;;;;5019394;28;20446;-61
2023/07/07 06:42:55;;;;;;;0.55;0.55;;;25.50;94.20;;;;;;5018675;28;20435;-60
2023/07/07 06:45:22;;;;;;;0.90;0.45;;;25.70;94.20;;;;;;5012417;28;21334;-60
2023/07/07 06:47:50;;;;;;;0.40;0.40;;;25.60;93.40;;;;;;5013524;28;20431;-60
2023/07/07 06:50:38;;;;;;;0.40;0.40;;;25.70;93.80;;;;;;5016590;28;20439;-60
2023/07/07 06:53:05;;;;;;;0.60;0.60;;;25.40;92.70;;;;;;5013783;28;20438;-60
2023/07/07 06:55:35;;;;;;;1.90;0.70;;;25.80;93.40;;;;;;5015428;28;20992;-60
2023/07/07 06:58:02;;;;;;;0.50;0.50;;;26.30;94.40;;;;;;5015052;28;21003;-60
2023/07/07 07:00:31;;;;;;;0.50;0.50;;;26.20;94.20;;;;;;5015279;28;20442;-61
2023/07/07 07:02:58;;;;;;;0.70;0.40;;;26.80;95.20;;;;;;5015596;28;20437;-60
2023/07/07 07:05:25;;;;;;;0.85;0.55;;;26.90;95.30;;;;;;5015172;28;20466;-60
2023/07/07 07:07:51;;;;;;;1.85;0.60;;;27.10;95.70;;;;;;5015689;28;20454;-60
2023/07/07 07:10:20;;;;;;;0.50;0.50;;;27.20;95.60;;;;;;5014357;28;20485;-61
2023/07/07 07:12:48;;;;;;;0.38;0.38;;;26.40;93.60;;;;;;5016061;28;20441;-61
2023/07/07 07:15:15;;;;;;;1.20;0.40;;;26.70;94.10;;;;;;5011679;28;20815;-61
2023/07/07 07:17:42;;;;;;;0.50;0.50;;;26.90;94.80;;;;;;5015036;28;20446;-61
2023/07/07 07:20:11;;;;;;;0.50;0.50;;;27.50;96.00;;;;;;5014411;28;20442;-61
2023/07/07 07:22:37;;;;;;;0.52;0.52;;;27.90;96.70;;;;;;5016833;28;20465;-60
2023/07/07 07:25:08;;;;;;;0.50;0.50;;;28.00;96.60;;;;;;5014825;28;20489;-61
2023/07/07 07:27:37;;;;;;;0.63;0.57;;;28.30;97.50;;;;;;5012652;28;20439;-60
2023/07/07 07:30:07;;;;;;;0.88;0.88;;;28.20;97.40;;;;;;5015208;28;20488;-61
2023/07/07 07:32:34;;;;;;;0.30;0.30;;;28.10;96.20;;;;;;5015333;28;20521;-61
2023/07/07 07:35:03;;;;;;;1.73;0.68;;;27.80;95.50;;;;;;5000985;28;20431;-60
2023/07/07 07:37:30;;;;;;;0.60;0.60;;;27.70;96.60;;;;;;4998875;28;20437;-60
2023/07/07 07:39:56;;;;;;;1.00;0.50;;;28.10;96.30;;;;;;5017886;28;20445;-61
2023/07/07 07:42:23;;;;;;;0.60;0.60;;;28.60;97.00;;;;;;5013853;28;20454;-60
2023/07/07 07:44:50;;;;;;;0.50;0.50;;;28.40;96.40;;;;;;5011811;28;20485;-61
2023/07/07 07:47:19;;;;;;;0.68;0.68;;;28.50;96.50;;;;;;5024136;28;21020;-61
2023/07/07 07:49:47;;;;;;;0.50;0.50;;;28.60;96.90;;;;;;5006382;28;20440;-61
2023/07/07 07:52:16;;;;;;;0.55;0.55;;;28.90;97.40;;;;;;5019008;28;20529;-61
2023/07/07 07:54:43;;;;;;;0.40;0.40;;;29.00;97.70;;;;;;5018532;28;20434;-60
2023/07/07 07:57:10;;;;;;;0.60;0.60;;;29.40;98.50;;;;;;5019194;28;20431;-60
2023/07/07 07:59:37;;;;;;;2.10;0.50;;;29.00;97.30;;;;;;5018555;28;20426;-61
2023/07/07 08:02:04;;;;;;;0.85;0.60;;;29.20;97.70;;;;;;5019185;28;20426;-60
2023/07/07 08:04:34;;;;;;;0.73;0.60;;;29.40;98.20;;;;;;5019328;28;20506;-61
2023/07/07 08:07:03;;;;;;;2.90;0.68;;;29.60;98.20;;;;;;5006451;28;21059;-61
2023/07/07 08:09:29;;;;;;;0.63;0.63;;;29.70;99.00;;;;;;5017916;28;20495;-60
2023/07/07 08:12:07;;;;;;;2.35;0.70;;;29.70;98.40;;;;;;5019305;28;20481;-60
2023/07/07 08:14:35;;;;;;;0.50;0.50;;;29.30;97.60;;;;;;5019835;28;20444;-60
2023/07/07 08:17:08;;;;;;;0.90;0.60;;;28.50;94.70;;;;;;5020172;28;21147;-61
2023/07/07 08:19:37;;;;;;;0.55;0.50;;;28.70;95.90;;;;;;5011437;28;20442;-61
2023/07/07 08:22:06;;;;;;;0.75;0.75;;;29.10;96.60;;;;;;5021845;28;20430;-61
2023/07/07 08:24:38;;;;;;;0.60;0.50;;;29.20;97.20;;;;;;5020503;28;20436;-61
2023/07/07 08:27:07;;;;;;;0.60;0.60;;;29.70;98.40;;;;;;5018862;28;20530;-60
2023/07/07 08:29:38;;;;;;;3.15;0.90;;;30.10;99.40;;;;;;5024012;28;20435;-61
2023/07/07 08:32:06;;;;;;;0.75;0.75;;;30.00;99.90;;;;;;5018593;28;20430;-61
2023/07/07 08:34:33;;;;;;;0.47;0.47;;;30.10;98.90;;;;;;5018047;28;21046;-61
2023/07/07 08:37:21;;;;;;;0.60;0.60;;;29.60;98.00;;;;;;5017548;28;20435;-61
2023/07/07 08:39:47;;;;;;;0.70;0.70;;;30.00;98.70;;;;;;5021119;28;20511;-60
2023/07/07 08:42:39;;;;;;;0.80;0.80;;;30.10;98.80;;;;;;5021512;28;20438;-61
2023/07/07 08:45:15;;;;;;;0.60;0.60;;;30.10;98.70;;;;;;5020344;28;20442;-61
2023/07/07 08:48:01;;;;;;;0.50;0.50;;;30.30;99.00;;;;;;5017894;28;20941;-61
2023/07/07 08:50:51;;;;;;;0.57;0.57;;;31.10;99.90;;;;;;5025593;28;20467;-60
2023/07/07 08:53:43;;;;;;;1.98;0.70;;;30.90;99.90;;;;;;5011220;28;20449;-60
2023/07/07 08:56:47;;;;;;;0.50;0.50;;;30.60;99.80;;;;;;5017731;28;20488;-61
2023/07/07 08:59:30;;;;;;;0.50;0.50;;;30.80;99.90;;;;;;5020536;28;20474;-61
2023/07/07 09:02:17;;;;;;;1.50;0.80;;;30.90;99.90;;;;;;5019639;28;20430;-61
2023/07/07 09:04:47;;;;;;;1.38;0.88;;;30.90;99.90;;;;;;5016433;28;20435;-61
2023/07/07 09:07:40;;;;;;;1.10;0.70;;;31.10;99.90;;;;;;5019528;28;20457;-60
2023/07/07 09:10:28;;;;;;;1.40;0.70;;;31.40;99.90;;;;;;5018254;28;20474;-60
2023/07/07 09:13:01;;;;;;;0.88;0.88;;;31.40;99.90;;;;;;5019872;28;20493;-61
2023/07/07 09:15:39;;;;;;;0.57;0.57;;;31.20;99.90;;;;;;5023989;28;21901;-60
2023/07/07 09:18:22;;;;;;;0.80;0.60;;;31.60;99.90;;;;;;5019388;28;20529;-60
2023/07/07 09:20:55;;;;;;;0.60;0.60;;;31.10;99.90;;;;;;5016915;28;21175;-61
2023/07/07 09:23:31;;;;;;;2.60;0.80;;;31.20;99.90;;;;;;5003349;28;20429;-61
2023/07/07 09:26:02;;;;;;;1.10;0.77;;;30.90;98.80;;;;;;5020385;28;20464;-61
2023/07/07 09:28:34;;;;;;;0.85;0.70;;;31.10;99.60;;;;;;5018363;28;20451;-61
2023/07/07 09:31:37;;;;;;;0.60;0.60;;;31.30;99.90;;;;;;5017331;28;20426;-61
2023/07/07 09:34:04;;;;;;;0.77;0.77;;;31.40;99.90;;;;;;4919042;29;20439;-60
2023/07/07 09:36:40;;;;;;;0.90;0.70;;;31.00;98.90;;;;;;4918852;29;20531;-61
2023/07/07 09:39:28;;;;;;;0.70;0.70;;;30.40;96.80;;;;;;4918816;29;20440;-61
2023/07/07 09:42:24;;;;;;;0.70;0.70;;;30.30;96.10;;;;;;4919803;29;20625;-61
2023/07/07 09:45:06;;;;;;;0.70;0.70;;;30.30;96.50;;;;;;4914133;29;20474;-61
2023/07/07 09:47:56;;;;;;;1.08;0.93;;;29.80;95.00;;;;;;4915645;29;20505;-61
2023/07/07 09:50:42;;;;;;;2.00;0.73;;;30.30;96.30;;;;;;4919387;29;20516;-61
2023/07/07 09:53:26;;;;;;;1.40;0.70;;;30.50;96.70;;;;;;4947922;29;20442;-62
2023/07/07 09:56:02;;;;;;;0.80;0.80;;;31.10;98.30;;;;;;4914273;29;20467;-61
2023/07/07 09:58:44;;;;;;;0.75;0.75;;;31.30;98.70;;;;;;4927706;28;20551;-61
2023/07/07 10:01:11;;;;;;;0.70;0.70;;;31.40;99.10;;;;;;4952950;28;20923;-61
2023/07/07 10:03:43;;;;;;;0.82;0.80;;;31.60;99.50;;;;;;4962033;28;20430;-61
2023/07/07 10:06:35;;;;;;;1.47;0.90;;;31.80;99.90;;;;;;4948715;29;20440;-60
2023/07/07 10:09:04;;;;;;;1.30;0.57;;;31.30;98.70;;;;;;4942239;28;20505;-61
2023/07/07 10:11:35;;;;;;;0.95;0.95;;;31.50;99.30;;;;;;5023040;28;20433;-61
2023/07/07 10:14:07;;;;;;;0.80;0.80;;;31.10;97.80;;;;;;5035623;28;21553;-61
2023/07/07 10:16:34;;;;;;;1.13;1.02;;;31.20;98.20;;;;;;5044721;28;20435;-61
2023/07/07 10:19:11;;;;;;;1.33;0.85;;;31.00;98.30;;;;;;5022533;28;20448;-61
2023/07/07 10:21:38;;;;;;;0.70;0.70;;;30.80;97.60;;;;;;5038261;28;20433;-61
2023/07/07 10:24:05;;;;;;;2.20;1.00;;;30.20;95.80;;;;;;5023949;28;20463;-61
2023/07/07 10:26:33;;;;;;;1.05;0.88;;;30.30;95.90;;;;;;5019805;28;20903;-61
2023/07/07 10:29:02;;;;;;;0.75;0.75;;;30.80;96.90;;;;;;5022312;28;20458;-61
2023/07/07 10:31:29;;;;;;;0.77;0.77;;;31.00;97.60;;;;;;5030159;28;20434;-61
2023/07/07 10:33:59;;;;;;;0.90;0.90;;;31.50;98.90;;;;;;5029442;28;20509;-61
2023/07/07 10:36:33;;;;;;;2.78;1.02;;;31.60;99.70;;;;;;5025835;28;20988;-61
2023/07/07 10:39:02;;;;;;;0.93;0.90;;;31.70;99.90;;;;;;5023508;28;20425;-61
2023/07/07 10:41:29;;;;;;;0.90;0.90;;;32.10;99.90;;;;;;5011724;28;20440;-62
2023/07/07 10:43:56;;;;;;;0.80;0.80;;;32.20;99.90;;;;;;5020641;28;20441;-61
2023/07/07 10:46:23;;;;;;;0.90;0.90;;;32.10;99.90;;;;;;5027374;28;20507;-58
2023/07/07 10:48:55;;;;;;;1.40;0.80;;;31.70;99.80;;;;;;5030943;28;20470;-62
2023/07/07 10:51:37;;;;;;;0.90;0.90;;;31.70;99.60;;;;;;5041819;28;20515;-60
2023/07/07 10:54:18;;;;;;;0.77;0.77;;;31.30;98.90;;;;;;5049793;28;20468;-61
2023/07/07 10:56:52;;;;;;;0.80;0.80;;;31.40;98.90;;;;;;5041683;28;20446;-62
2023/07/07 10:59:23;;;;;;;0.60;0.60;;;31.90;99.90;;;;;;5036355;28;20433;-62
2023/07/07 11:02:16;;;;;;;1.30;1.20;;;31.70;99.80;;;;;;5026569;28;20477;-61
2023/07/07 11:04:52;;;;;;;1.17;1.10;;;31.80;99.90;;;;;;5017613;28;20425;-62
2023/07/07 11:07:40;;;;;;;0.97;0.97;;;32.10;99.90;;;;;;5018297;28;20442;-61
2023/07/07 11:10:31;;;;;;;1.30;0.80;;;31.90;99.90;;;;;;5019874;28;20482;-61
2023/07/07 11:13:24;;;;;;;1.02;0.93;;;32.40;99.90;;;;;;5011180;28;20438;-61
2023/07/07 11:16:22;;;;;;;0.98;0.95;;;31.80;99.90;;;;;;5002446;28;20980;-61
2023/07/07 11:19:11;;;;;;;1.25;0.90;;;31.60;99.60;;;;;;5015471;28;20437;-61
2023/07/07 11:22:08;;;;;;;0.73;0.73;;;31.80;99.90;;;;;;5021761;28;20492;-61
2023/07/07 11:24:47;;;;;;;1.50;1.27;;;31.70;99.60;;;;;;5007215;28;20441;-61
2023/07/07 11:27:55;;;;;;;1.48;1.08;;;31.60;99.30;;;;;;5026088;28;20441;-60
2023/07/07 11:30:55;;;;;;;1.50;1.27;;;31.80;99.70;;;;;;4968310;28;20541;-61
2023/07/07 11:33:47;;;;;;;1.13;1.03;;;31.90;99.90;;;;;;4967858;28;20490;-60
2023/07/07 11:36:33;;;;;;;1.30;1.20;;;31.20;98.50;;;;;;4970994;28;20526;-62
2023/07/07 11:39:25;;;;;;;1.17;1.10;;;31.40;98.60;;;;;;4964412;28;20443;-60
2023/07/07 11:41:59;;;;;;;1.07;1.00;;;31.10;97.50;;;;;;4962309;28;20605;-61
2023/07/07 11:44:34;;;;;;;0.80;0.80;;;30.90;97.10;;;;;;4963025;28;20774;-61
2023/07/07 11:47:10;;;;;;;1.50;1.40;;;31.20;97.80;;;;;;4965039;28;20986;-61
2023/07/07 11:49:51;;;;;;;2.00;1.33;;;31.80;99.30;;;;;;4968952;28;20438;-61
2023/07/07 11:52:34;;;;;;;2.55;1.55;;;31.90;99.50;;;;;;4970541;28;20957;-60
2023/07/07 11:55:24;;;;;;;1.60;1.20;;;32.00;99.50;;;;;;4970914;28;20849;-61
2023/07/07 11:58:06;;;;;;;1.60;1.50;;;32.30;99.90;;;;;;4968559;28;20442;-61
2023/07/07 12:00:48;;;;;;;2.47;1.40;;;32.00;99.70;;;;;;4964053;28;20442;-61
2023/07/07 12:03:40;;;;;;;1.50;0.90;;;32.40;99.90;;;;;;4974630;28;20516;-61
2023/07/07 12:06:32;;;;;;;1.30;1.20;;;32.70;99.90;;;;;;4949901;28;20469;-61
2023/07/07 12:09:23;;;;;;;1.65;1.55;;;32.50;99.90;;;;;;5021836;28;20545;-60
2023/07/07 12:11:57;;;;;;;1.98;1.65;;;32.50;99.90;;;;;;5023522;28;20467;-61
2023/07/07 12:14:49;;;;;;;1.70;1.50;;;32.30;99.90;;;;;;5035315;28;20443;-61
2023/07/07 12:17:22;;;;;;;1.40;1.30;;;32.40;99.90;;;;;;5029000;28;20439;-60
2023/07/07 12:19:55;;;;;;;1.77;1.20;;;32.40;99.90;;;;;;5030930;28;20481;-61
2023/07/07 12:22:28;;;;;;;1.50;1.40;;;32.60;99.90;;;;;;5031373;28;20800;-61
2023/07/07 12:25:21;;;;;;;3.42;1.50;;;32.60;99.90;;;;;;5028025;28;20430;-61
2023/07/07 12:27:51;;;;;;;1.70;1.52;;;32.50;99.90;;;;;;5016466;28;20770;-60
2023/07/07 12:30:25;;;;;;;4.80;1.42;;;32.00;99.10;;;;;;5017404;28;20434;-60
2023/07/07 12:32:52;;;;;;;1.70;1.60;;;31.60;98.20;;;;;;5017858;28;20435;-60
2023/07/07 12:35:35;;;;;;;3.13;1.95;;;31.80;98.50;;;;;;5018065;28;20816;-60
2023/07/07 12:38:33;;;;;;;3.80;1.50;;;32.30;99.40;;;;;;5019956;28;20438;-60
2023/07/07 12:41:11;;;;;;;1.97;1.60;;;32.20;99.70;;;;;;5017889;28;20441;-61
2023/07/07 12:43:59;;;;;;;1.77;1.67;;;32.20;99.90;;;;;;5015169;28;20441;-60
2023/07/07 12:46:31;;;;;;;2.72;1.70;;;32.40;99.90;;;;;;5016276;28;20905;-61
2023/07/07 12:49:02;;;;;;;1.73;1.58;;;32.50;99.90;;;;;;5017859;28;20439;-60
2023/07/07 12:51:31;;;;;;;1.38;1.27;;;32.70;99.90;;;;;;5015273;28;20510;-60
2023/07/07 12:53:58;;;;;;;3.78;1.52;;;32.80;99.90;;;;;;5015336;28;20447;-60
2023/07/07 12:56:29;;;;;;;1.63;1.38;;;32.90;99.90;;;;;;5012165;28;20541;-60
2023/07/07 12:59:00;;;;;;;1.73;1.55;;;32.70;99.90;;;;;;5020977;28;20566;-61
2023/07/07 13:01:36;;;;;;;2.15;1.65;;;32.20;99.90;;;;;;5016621;28;20535;-61
2023/07/07 13:04:09;;;;;;;1.73;1.63;;;32.30;99.60;;;;;;5014519;28;20430;-61
2023/07/07 13:07:02;;;;;;;3.58;2.00;;;32.20;99.70;;;;;;5011356;28;20446;-61
2023/07/07 13:09:49;;;;;;;1.85;1.52;;;32.20;99.30;;;;;;5004355;28;20477;-61
2023/07/07 13:12:40;;;;;;;2.40;1.70;;;32.40;99.90;;;;;;5012159;28;20597;-61
2023/07/07 13:15:13;;;;;;;1.67;1.50;;;32.80;99.90;;;;;;5013884;28;20527;-61
2023/07/07 13:17:43;;;;;;;2.00;1.40;;;33.20;99.90;;;;;;5001752;28;20478;-61
2023/07/07 13:20:16;;;;;;;1.63;1.52;;;32.80;99.90;;;;;;5019283;28;20526;-61